createdAt,value
2022-10-17T00:00:00.624Z,91.4
2022-10-17T00:01:00.769Z,91.5
2022-10-17T00:02:00.908Z,91.5
2022-10-17T00:03:01.069Z,91.4
2022-10-17T00:04:01.196Z,91.4
2022-10-17T00:05:00.345Z,91.4
2022-10-17T00:06:00.498Z,91.5
2022-10-17T00:07:00.644Z,91.4
2022-10-17T00:08:00.790Z,91.3
2022-10-17T00:09:00.933Z,91.2
2022-10-17T00:10:01.073Z,91.3
2022-10-17T00:11:01.250Z,91.2
2022-10-17T00:12:00.368Z,91.2
2022-10-17T00:13:00.514Z,91.5
2022-10-17T00:14:00.665Z,91.7
2022-10-17T00:15:00.817Z,91.6
2022-10-17T00:16:00.972Z,91.7
2022-10-17T00:17:01.112Z,91.8
2022-10-17T00:18:00.273Z,91.9
2022-10-17T00:19:00.408Z,92.1
2022-10-17T00:20:00.553Z,92.2
2022-10-17T00:21:00.702Z,92.2
2022-10-17T00:22:00.871Z,92.2
2022-10-17T00:23:01.017Z,92.1
2022-10-17T00:24:01.153Z,92.1
2022-10-17T00:25:00.295Z,92.2
2022-10-17T00:26:00.432Z,92.4
2022-10-17T00:27:00.641Z,92.4
2022-10-17T00:28:00.739Z,92.4
2022-10-17T00:29:00.979Z,92.3
2022-10-17T00:30:01.074Z,92.3
2022-10-17T00:31:01.174Z,92.5
2022-10-17T00:32:00.342Z,92.4
2022-10-17T00:33:00.472Z,92.4
2022-10-17T00:34:00.617Z,92.5
2022-10-17T00:35:00.770Z,92.6
2022-10-17T00:36:00.921Z,92.6
2022-10-17T00:37:01.090Z,92.6
2022-10-17T00:38:01.208Z,92.5
2022-10-17T00:39:00.356Z,92.5
2022-10-17T00:40:00.498Z,92.5
2022-10-17T00:41:00.660Z,92.4
2022-10-17T00:42:00.810Z,92.4
2022-10-17T00:43:00.951Z,92.4
2022-10-17T00:44:01.104Z,92.4
2022-10-17T00:45:01.249Z,92.2
2022-10-17T00:46:00.390Z,92.2
2022-10-17T00:47:00.567Z,92.2
2022-10-17T00:48:00.700Z,92.2
2022-10-17T00:49:00.849Z,92.2
2022-10-17T00:51:01.141Z,92.2
2022-10-17T00:52:00.283Z,92.2
2022-10-17T00:53:00.431Z,92.2
2022-10-17T00:54:00.581Z,92.2
2022-10-17T00:55:00.733Z,92.3
2022-10-17T00:56:00.892Z,92.3
2022-10-17T00:57:01.017Z,92.3
2022-10-17T00:58:01.148Z,92.2
2022-10-17T00:59:00.370Z,92.2
2022-10-17T01:00:00.448Z,92.1
2022-10-17T01:01:00.687Z,92.1
2022-10-17T01:02:00.749Z,92.1
2022-10-17T01:03:00.895Z,92.1
2022-10-17T01:04:01.049Z,92.1
2022-10-17T01:05:01.187Z,92
2022-10-17T01:06:00.364Z,92
2022-10-17T01:07:00.514Z,92
2022-10-17T01:08:00.659Z,92
2022-10-17T01:09:00.804Z,92
2022-10-17T01:10:00.945Z,92
2022-10-17T01:11:01.116Z,92
2022-10-17T01:12:01.245Z,92
2022-10-17T01:13:00.391Z,92.1
2022-10-17T01:14:00.544Z,92.1
2022-10-17T01:15:00.672Z,92.1
2022-10-17T01:16:00.838Z,92.1
2022-10-17T01:17:00.970Z,92
2022-10-17T01:18:01.121Z,92
2022-10-17T01:19:00.263Z,92
2022-10-17T01:20:00.409Z,92
2022-10-17T01:21:00.581Z,92.1
2022-10-17T01:22:00.732Z,92.2
2022-10-17T01:23:00.850Z,92.1
2022-10-17T01:24:01.009Z,91.9
2022-10-17T01:25:01.152Z,91.9
2022-10-17T01:26:00.292Z,91.9
2022-10-17T01:27:00.473Z,92.1
2022-10-17T01:28:00.593Z,92.1
2022-10-17T01:29:00.730Z,92
2022-10-17T01:30:00.891Z,92
2022-10-17T01:31:01.021Z,91.9
2022-10-17T01:32:01.182Z,91.8
2022-10-17T01:33:00.312Z,91.8
2022-10-17T01:34:00.467Z,91.8
2022-10-17T01:35:00.602Z,91.6
2022-10-17T01:36:04.749Z,91.6
2022-10-17T01:37:00.893Z,91.6
2022-10-17T01:38:01.054Z,91.7
2022-10-17T01:39:01.205Z,91.7
2022-10-17T01:40:00.341Z,91.8
2022-10-17T01:41:00.477Z,91.7
2022-10-17T01:42:00.611Z,91.7
2022-10-17T01:43:00.750Z,91.7
2022-10-17T01:44:00.928Z,91.9
2022-10-17T01:45:01.060Z,92
2022-10-17T01:46:01.194Z,91.8
2022-10-17T01:47:00.354Z,91.8
2022-10-17T01:48:00.508Z,91.8
2022-10-17T01:49:00.662Z,91.9
2022-10-17T01:50:00.793Z,92
2022-10-17T01:51:00.939Z,91.9
2022-10-17T01:52:01.098Z,91.9
2022-10-17T01:53:01.241Z,91.9
2022-10-17T01:54:00.420Z,91.9
2022-10-17T01:55:00.557Z,91.9
2022-10-17T01:56:00.714Z,91.8
2022-10-17T01:57:00.867Z,91.8
2022-10-17T01:58:01.001Z,91.8
2022-10-17T01:59:01.168Z,91.8
2022-10-17T02:00:00.298Z,91.8
2022-10-17T02:01:00.509Z,91.9
2022-10-17T02:02:00.601Z,91.9
2022-10-17T02:03:00.743Z,91.9
2022-10-17T02:04:00.903Z,92
2022-10-17T02:06:01.180Z,92.2
2022-10-17T02:07:00.313Z,92.2
2022-10-17T02:08:00.488Z,92.2
2022-10-17T02:09:00.611Z,92.3
2022-10-17T02:10:00.753Z,92.4
2022-10-17T02:11:00.898Z,92.4
2022-10-17T02:12:01.062Z,92.4
2022-10-17T02:13:01.231Z,92.4
2022-10-17T02:14:00.413Z,92.4
2022-10-17T02:15:00.497Z,92.4
2022-10-17T02:16:00.649Z,92.4
2022-10-17T02:17:00.793Z,92.3
2022-10-17T02:18:00.949Z,92.3
2022-10-17T02:19:01.099Z,92.3
2022-10-17T02:20:01.244Z,92.2
2022-10-17T02:21:00.386Z,92.2
2022-10-17T02:22:00.527Z,92.2
2022-10-17T02:23:00.697Z,92.4
2022-10-17T02:24:00.835Z,92.5
2022-10-17T02:25:00.978Z,92.5
2022-10-17T02:26:01.121Z,92.4
2022-10-17T02:27:00.269Z,92.5
2022-10-17T02:28:00.432Z,92.6
2022-10-17T02:29:00.610Z,92.6
2022-10-17T02:30:00.714Z,92.6
2022-10-17T02:31:00.864Z,92.7
2022-10-17T02:32:01.030Z,92.8
2022-10-17T02:33:01.192Z,92.7
2022-10-17T02:34:00.317Z,92.7
2022-10-17T02:35:00.458Z,92.7
2022-10-17T02:36:00.606Z,92.7
2022-10-17T02:37:00.748Z,92.7
2022-10-17T02:38:00.913Z,92.7
2022-10-17T02:39:01.086Z,92.7
2022-10-17T02:40:01.197Z,92.7
2022-10-17T02:41:00.349Z,92.7
2022-10-17T02:42:00.495Z,92.7
2022-10-17T02:43:00.647Z,92.8
2022-10-17T02:44:02.486Z,92.8
2022-10-17T02:45:00.967Z,92.7
2022-10-17T02:46:01.101Z,92.7
2022-10-17T02:47:01.245Z,92.6
2022-10-17T02:48:00.390Z,92.5
2022-10-17T02:49:00.565Z,92.5
2022-10-17T02:50:00.696Z,92.5
2022-10-17T02:51:00.855Z,92.5
2022-10-17T02:52:01.009Z,92.4
2022-10-17T02:53:01.154Z,92.3
2022-10-17T02:54:00.309Z,92.3
2022-10-17T02:55:00.470Z,92.2
2022-10-17T02:56:00.608Z,92.1
2022-10-17T02:57:00.741Z,92.1
2022-10-17T02:58:00.899Z,92.1
2022-10-17T02:59:01.047Z,92.1
2022-10-17T03:00:01.210Z,92.1
2022-10-17T03:01:00.382Z,92.1
2022-10-17T03:02:00.474Z,92.1
2022-10-17T03:03:00.629Z,92.1
2022-10-17T03:04:00.781Z,92.2
2022-10-17T03:05:00.945Z,92.2
2022-10-17T03:06:01.075Z,92.2
2022-10-17T03:07:01.220Z,92.2
2022-10-17T03:08:00.371Z,92.2
2022-10-17T03:09:00.530Z,92.2
2022-10-17T03:10:00.698Z,92.2
2022-10-17T03:11:00.827Z,92.3
2022-10-17T03:12:00.976Z,92.3
2022-10-17T03:13:01.140Z,92.3
2022-10-17T03:14:00.284Z,92.3
2022-10-17T03:15:00.435Z,92.3
2022-10-17T03:16:00.572Z,92.3
2022-10-17T03:17:00.719Z,92.3
2022-10-17T03:18:00.884Z,92.4
2022-10-17T03:19:01.019Z,92.4
2022-10-17T03:20:01.179Z,92.4
2022-10-17T03:21:00.351Z,92.3
2022-10-17T03:22:00.467Z,92.4
2022-10-17T03:23:00.621Z,92.4
2022-10-17T03:24:00.756Z,92.4
2022-10-17T03:25:00.915Z,92.4
2022-10-17T03:26:01.080Z,92.4
2022-10-17T03:27:01.202Z,92.4
2022-10-17T03:28:00.353Z,92.4
2022-10-17T03:29:00.550Z,92.4
2022-10-17T03:30:00.652Z,92.4
2022-10-17T03:31:00.809Z,92.3
2022-10-17T03:32:00.962Z,92.3
2022-10-17T03:33:01.090Z,92.3
2022-10-17T03:34:01.232Z,92.3
2022-10-17T03:35:00.389Z,92.3
2022-10-17T03:36:00.545Z,92.3
2022-10-17T03:37:00.698Z,92.3
2022-10-17T03:38:00.828Z,92.3
2022-10-17T03:39:00.979Z,92.3
2022-10-17T03:40:01.122Z,92.4
2022-10-17T03:41:00.252Z,92.4
2022-10-17T03:42:00.416Z,92.4
2022-10-17T03:43:00.550Z,92.4
2022-10-17T03:44:00.697Z,92.3
2022-10-17T03:45:00.846Z,92.3
2022-10-17T03:46:00.990Z,92.4
2022-10-17T03:47:01.159Z,92.3
2022-10-17T03:48:00.273Z,92.4
2022-10-17T03:49:00.417Z,92.4
2022-10-17T03:50:00.558Z,92.4
2022-10-17T03:51:00.719Z,92.4
2022-10-17T03:52:00.884Z,92.4
2022-10-17T03:53:01.012Z,92.3
2022-10-17T03:54:01.154Z,92.4
2022-10-17T03:55:00.310Z,92.4
2022-10-17T03:56:00.454Z,92.5
2022-10-17T03:57:00.616Z,92.5
2022-10-17T03:58:00.773Z,92.7
2022-10-17T03:59:00.910Z,92.8
2022-10-17T04:00:01.048Z,92.8
2022-10-17T04:01:01.247Z,92.8
2022-10-17T04:02:00.300Z,92.9
2022-10-17T04:03:00.468Z,92.9
2022-10-17T04:04:00.605Z,93
2022-10-17T04:05:00.745Z,93
2022-10-17T04:06:00.899Z,93
2022-10-17T04:07:01.051Z,92.9
2022-10-17T04:08:03.993Z,92.9
2022-10-17T04:09:00.353Z,92.9
2022-10-17T04:10:00.503Z,92.9
2022-10-17T04:11:00.650Z,92.9
2022-10-17T04:12:00.798Z,92.9
2022-10-17T04:13:00.976Z,92.8
2022-10-17T04:14:01.088Z,92.7
2022-10-17T04:15:01.251Z,92.7
2022-10-17T04:16:00.390Z,92.7
2022-10-17T04:17:00.535Z,92.6
2022-10-17T04:18:00.761Z,92.6
2022-10-17T04:19:00.826Z,92.6
2022-10-17T04:20:00.990Z,92.6
2022-10-17T04:21:01.170Z,92.6
2022-10-17T04:22:00.278Z,92.6
2022-10-17T04:23:00.444Z,92.6
2022-10-17T04:24:00.602Z,92.6
2022-10-17T04:25:00.723Z,92.6
2022-10-17T04:26:00.865Z,92.7
2022-10-17T04:27:01.022Z,92.8
2022-10-17T04:28:01.152Z,92.8
2022-10-17T04:29:00.329Z,92.8
2022-10-17T04:30:00.453Z,92.9
2022-10-17T04:31:00.600Z,92.8
2022-10-17T04:32:00.749Z,92.9
2022-10-17T04:33:00.905Z,92.9
2022-10-17T04:34:01.064Z,92.9
2022-10-17T04:35:01.225Z,92.9
2022-10-17T04:36:00.328Z,92.9
2022-10-17T04:37:00.480Z,93
2022-10-17T04:38:00.616Z,93
2022-10-17T04:39:00.823Z,93
2022-10-17T04:40:00.945Z,93
2022-10-17T04:41:01.083Z,92.9
2022-10-17T04:42:01.212Z,92.9
2022-10-17T04:43:00.360Z,93
2022-10-17T04:44:00.498Z,93.1
2022-10-17T04:45:00.661Z,93.1
2022-10-17T04:46:00.822Z,93.1
2022-10-17T04:47:00.950Z,93.1
2022-10-17T04:48:01.094Z,93.1
2022-10-17T04:49:01.252Z,93.1
2022-10-17T04:50:00.401Z,93.1
2022-10-17T04:51:00.571Z,93.1
2022-10-17T04:52:00.691Z,93.1
2022-10-17T04:53:00.837Z,93.2
2022-10-17T04:54:00.988Z,93.2
2022-10-17T04:55:01.135Z,93.3
2022-10-17T04:56:00.307Z,93.3
2022-10-17T04:57:00.431Z,93.3
2022-10-17T04:58:00.581Z,93.3
2022-10-17T04:59:00.726Z,93.4
2022-10-17T05:00:00.896Z,93.4
2022-10-17T05:01:01.129Z,93.4
2022-10-17T05:02:01.178Z,93.3
2022-10-17T05:03:00.321Z,93.3
2022-10-17T05:04:00.447Z,93.3
2022-10-17T05:05:00.610Z,93.3
2022-10-17T05:06:00.769Z,93.3
2022-10-17T05:07:00.895Z,93.3
2022-10-17T05:08:01.035Z,93.2
2022-10-17T05:09:01.190Z,93.2
2022-10-17T05:10:00.349Z,93.2
2022-10-17T05:11:00.568Z,93.1
2022-10-17T05:12:00.642Z,93.1
2022-10-17T05:13:00.797Z,93.1
2022-10-17T05:14:00.953Z,93.1
2022-10-17T05:15:01.105Z,93.2
2022-10-17T05:16:01.273Z,93.2
2022-10-17T05:17:00.403Z,93.2
2022-10-17T05:18:00.566Z,93.1
2022-10-17T05:19:00.717Z,93
2022-10-17T05:20:00.862Z,93.1
2022-10-17T05:21:01.037Z,93
2022-10-17T05:22:01.172Z,92.9
2022-10-17T05:23:00.313Z,92.8
2022-10-17T05:24:00.476Z,92.6
2022-10-17T05:25:00.609Z,92.6
2022-10-17T05:26:00.762Z,92.6
2022-10-17T05:27:00.928Z,92.6
2022-10-17T05:28:01.047Z,92.6
2022-10-17T05:29:01.257Z,92.6
2022-10-17T05:30:00.338Z,92.6
2022-10-17T05:31:00.474Z,92.7
2022-10-17T05:33:00.766Z,92.6
2022-10-17T05:34:00.920Z,92.6
2022-10-17T05:35:01.071Z,92.6
2022-10-17T05:36:01.215Z,92.5
2022-10-17T05:37:00.382Z,92.5
2022-10-17T05:38:00.508Z,92.6
2022-10-17T05:39:00.656Z,92.5
2022-10-17T05:40:00.809Z,92.5
2022-10-17T05:41:00.960Z,92.5
2022-10-17T05:42:01.128Z,92.6
2022-10-17T05:43:01.254Z,92.5
2022-10-17T05:44:03.167Z,92.5
2022-10-17T05:45:00.549Z,92.5
2022-10-17T05:46:00.699Z,92.5
2022-10-17T05:47:00.868Z,92.4
2022-10-17T05:48:01.001Z,92.3
2022-10-17T05:49:01.157Z,92.3
2022-10-17T05:50:00.300Z,92.2
2022-10-17T05:51:00.448Z,92.1
2022-10-17T05:52:00.610Z,92.1
2022-10-17T05:53:00.749Z,92.3
2022-10-17T05:54:00.898Z,92.3
2022-10-17T05:55:01.037Z,92.3
2022-10-17T05:56:01.208Z,92.4
2022-10-17T05:57:00.372Z,92.3
2022-10-17T05:58:00.515Z,92.2
2022-10-17T05:59:01.179Z,92.3
2022-10-17T06:00:00.819Z,92.2
2022-10-17T06:01:00.983Z,92.1
2022-10-17T06:02:01.171Z,92.2
2022-10-17T06:03:00.253Z,92.2
2022-10-17T06:04:00.412Z,92.1
2022-10-17T06:05:00.551Z,92.2
2022-10-17T06:06:00.771Z,92.1
2022-10-17T06:07:00.847Z,92.1
2022-10-17T06:08:02.043Z,92.2
2022-10-17T06:09:01.139Z,92.2
2022-10-17T06:10:00.299Z,92.3
2022-10-17T06:11:00.430Z,92.3
2022-10-17T06:12:00.581Z,92.3
2022-10-17T06:13:00.753Z,92.3
2022-10-17T06:14:00.868Z,92.3
2022-10-17T06:15:01.020Z,92.3
2022-10-17T06:16:01.176Z,92.3
2022-10-17T06:17:00.320Z,92.5
2022-10-17T06:18:00.485Z,92.5
2022-10-17T06:19:00.608Z,92.4
2022-10-17T06:20:00.753Z,92.4
2022-10-17T06:21:00.902Z,92.4
2022-10-17T06:22:01.055Z,92.4
2022-10-17T06:23:01.215Z,92.5
2022-10-17T06:24:00.352Z,92.6
2022-10-17T06:25:00.489Z,92.5
2022-10-17T06:26:00.640Z,92.5
2022-10-17T06:27:00.779Z,92.6
2022-10-17T06:28:00.941Z,92.6
2022-10-17T06:29:01.198Z,92.5
2022-10-17T06:30:01.221Z,92.6
2022-10-17T06:31:00.357Z,92.6
2022-10-17T06:32:00.499Z,92.6
2022-10-17T06:33:00.689Z,92.7
2022-10-17T06:34:00.801Z,92.7
2022-10-17T06:35:00.945Z,92.8
2022-10-17T06:36:01.101Z,92.8
2022-10-17T06:37:01.246Z,93
2022-10-17T06:38:00.415Z,93
2022-10-17T06:39:00.566Z,93.1
2022-10-17T06:40:00.731Z,93.1
2022-10-17T06:41:00.843Z,93.2
2022-10-17T06:42:01.003Z,93.2
2022-10-17T06:43:01.142Z,93.2
2022-10-17T06:44:00.287Z,93.2
2022-10-17T06:45:00.455Z,93.3
2022-10-17T06:46:00.601Z,93.4
2022-10-17T06:47:00.728Z,93.3
2022-10-17T06:48:00.882Z,93.3
2022-10-17T06:49:01.031Z,93.5
2022-10-17T06:50:01.172Z,93.6
2022-10-17T06:51:00.341Z,93.6
2022-10-17T06:52:00.475Z,93.6
2022-10-17T06:53:00.612Z,93.6
2022-10-17T06:54:00.754Z,93.5
2022-10-17T06:55:00.897Z,93.5
2022-10-17T06:56:01.050Z,93.5
2022-10-17T06:57:01.214Z,93.6
2022-10-17T06:58:00.350Z,93.6
2022-10-17T06:59:00.488Z,93.5
2022-10-17T07:00:00.649Z,93.5
2022-10-17T07:01:01.189Z,93.5
2022-10-17T07:02:00.950Z,93.5
2022-10-17T07:03:01.075Z,93.5
2022-10-17T07:04:01.226Z,93.5
2022-10-17T07:05:00.371Z,93.6
2022-10-17T07:06:00.519Z,93.5
2022-10-17T07:07:00.673Z,93.5
2022-10-17T07:08:00.838Z,93.5
2022-10-17T07:09:00.968Z,93.6
2022-10-17T07:10:01.134Z,93.6
2022-10-17T07:11:00.279Z,93.6
2022-10-17T07:12:00.432Z,93.5
2022-10-17T07:13:00.604Z,93.6
2022-10-17T07:14:00.723Z,93.7
2022-10-17T07:15:00.874Z,93.8
2022-10-17T07:16:01.017Z,93.7
2022-10-17T07:17:01.156Z,93.7
2022-10-17T07:18:00.318Z,93.7
2022-10-17T07:19:00.454Z,93.8
2022-10-17T07:20:00.633Z,93.9
2022-10-17T07:21:00.743Z,93.9
2022-10-17T07:22:00.903Z,93.9
2022-10-17T07:23:01.065Z,93.8
2022-10-17T07:24:01.221Z,93.8
2022-10-17T07:25:00.343Z,93.8
2022-10-17T07:26:00.501Z,93.8
2022-10-17T07:27:00.629Z,93.8
2022-10-17T07:28:00.790Z,93.9
2022-10-17T07:29:01.029Z,94
2022-10-17T07:30:01.075Z,94.1
2022-10-17T07:31:01.237Z,94
2022-10-17T07:32:00.378Z,94
2022-10-17T07:33:00.524Z,93.9
2022-10-17T07:34:00.660Z,93.8
2022-10-17T07:35:00.795Z,93.8
2022-10-17T07:36:00.939Z,93.8
2022-10-17T07:37:01.075Z,93.7
2022-10-17T07:38:01.229Z,93.7
2022-10-17T07:39:00.385Z,93.7
2022-10-17T07:40:00.507Z,93.5
2022-10-17T07:41:00.659Z,93.5
2022-10-17T07:42:00.799Z,93.4
2022-10-17T07:43:00.942Z,93.3
2022-10-17T07:44:01.119Z,93.3
2022-10-17T07:45:01.240Z,93.4
2022-10-17T07:46:00.394Z,93.4
2022-10-17T07:47:00.527Z,93.4
2022-10-17T07:48:00.689Z,93.3
2022-10-17T07:49:00.845Z,93.4
2022-10-17T07:50:00.976Z,93.3
2022-10-17T07:51:01.142Z,93.4
2022-10-17T07:52:00.271Z,93.4
2022-10-17T07:53:00.422Z,93.3
2022-10-17T07:54:00.603Z,93.2
2022-10-17T07:55:00.720Z,93
2022-10-17T07:56:00.867Z,92.7
2022-10-17T07:57:01.017Z,92.4
2022-10-17T07:58:01.160Z,92.2
2022-10-17T07:59:02.669Z,92.1
2022-10-17T08:00:00.453Z,91.8
2022-10-17T08:02:00.747Z,91.4
2022-10-17T08:03:00.890Z,91.2
2022-10-17T08:04:01.068Z,90.9
2022-10-17T08:05:01.206Z,90.8
2022-10-17T08:06:00.350Z,90.7
2022-10-17T08:07:11.902Z,90.6
2022-10-17T08:08:00.644Z,90.7
2022-10-17T08:09:00.825Z,90.4
2022-10-17T08:10:00.991Z,90.1
2022-10-17T08:11:01.105Z,89.8
2022-10-17T08:12:01.258Z,89.8
2022-10-17T08:13:00.392Z,89.8
2022-10-17T08:14:00.581Z,89.7
2022-10-17T08:15:00.695Z,89.1
2022-10-17T08:16:00.841Z,89.4
2022-10-17T08:17:00.994Z,89.5
2022-10-17T08:18:01.166Z,89
2022-10-17T08:19:00.344Z,87.9
2022-10-17T08:20:00.442Z,87.6
2022-10-17T08:21:00.595Z,87.6
2022-10-17T08:22:00.742Z,87.2
2022-10-17T08:23:00.897Z,86.8
2022-10-17T08:24:01.063Z,86.7
2022-10-17T08:25:01.210Z,86.2
2022-10-17T08:26:00.363Z,86.1
2022-10-17T08:27:00.517Z,85.7
2022-10-17T08:28:00.742Z,85.3
2022-10-17T08:29:00.961Z,85.6
2022-10-17T08:30:00.956Z,86
2022-10-17T08:31:01.099Z,85.8
2022-10-17T08:32:02.404Z,85.6
2022-10-17T08:33:00.403Z,85.2
2022-10-17T08:34:00.551Z,85.1
2022-10-17T08:35:00.711Z,83.9
2022-10-17T08:36:00.838Z,83.6
2022-10-17T08:37:01.074Z,83.7
2022-10-17T08:38:01.156Z,83.3
2022-10-17T08:39:00.281Z,83.3
2022-10-17T08:40:00.434Z,83
2022-10-17T08:41:00.573Z,83.1
2022-10-17T08:42:00.735Z,83
2022-10-17T08:43:00.901Z,83
2022-10-17T08:44:01.032Z,82.5
2022-10-17T08:45:01.179Z,82.5
2022-10-17T08:46:00.319Z,82.5
2022-10-17T08:47:00.472Z,82.3
2022-10-17T08:48:00.632Z,82.6
2022-10-17T08:49:00.798Z,82.3
2022-10-17T08:50:00.913Z,82.4
2022-10-17T08:51:01.076Z,82.8
2022-10-17T08:52:01.218Z,83.1
2022-10-17T08:53:00.367Z,83.2
2022-10-17T08:54:00.522Z,83
2022-10-17T08:55:00.653Z,83.4
2022-10-17T08:56:00.804Z,82.4
2022-10-17T08:57:00.947Z,82
2022-10-17T08:58:01.093Z,82.3
2022-10-17T08:59:01.252Z,82.2
2022-10-17T09:00:00.390Z,81.9
2022-10-17T09:01:00.545Z,82.1
2022-10-17T09:02:00.679Z,82.2
2022-10-17T09:03:00.898Z,82.2
2022-10-17T09:04:01.008Z,82.1
2022-10-17T09:05:01.133Z,82.2
2022-10-17T09:06:00.274Z,82.2
2022-10-17T09:07:00.434Z,82.2
2022-10-17T09:08:00.577Z,82
2022-10-17T09:09:00.745Z,82.1
2022-10-17T09:10:00.893Z,82
2022-10-17T09:11:01.052Z,81.7
2022-10-17T09:12:01.169Z,81.8
2022-10-17T09:13:05.362Z,81.7
2022-10-17T09:14:00.459Z,82
2022-10-17T09:15:00.599Z,80.9
2022-10-17T09:16:00.769Z,80.4
2022-10-17T09:17:00.885Z,80.2
2022-10-17T09:18:01.030Z,80.2
2022-10-17T09:19:01.195Z,79.8
2022-10-17T09:20:00.333Z,79.3
2022-10-17T09:21:00.488Z,78.9
2022-10-17T09:22:00.630Z,78.6
2022-10-17T09:23:00.768Z,78.4
2022-10-17T09:24:09.169Z,77.9
2022-10-17T09:25:01.070Z,76.5
2022-10-17T09:26:01.229Z,77.1
2022-10-17T09:27:00.364Z,76
2022-10-17T09:28:00.545Z,75.9
2022-10-17T09:29:00.770Z,74.4
2022-10-17T09:30:00.816Z,73.7
2022-10-17T09:31:00.959Z,73.1
2022-10-17T09:32:01.115Z,73.3
2022-10-17T09:33:00.270Z,73.7
2022-10-17T09:34:00.408Z,73.5
2022-10-17T09:35:00.551Z,72.6
2022-10-17T09:36:00.696Z,72.1
2022-10-17T09:37:00.866Z,73.4
2022-10-17T09:38:01.016Z,72.7
2022-10-17T09:39:01.128Z,72.1
2022-10-17T09:40:00.282Z,71.9
2022-10-17T09:41:00.518Z,73.1
2022-10-17T09:42:00.565Z,72.7
2022-10-17T09:43:00.760Z,72.6
2022-10-17T09:44:00.874Z,72.5
2022-10-17T09:45:01.028Z,72.3
2022-10-17T09:46:01.176Z,72
2022-10-17T09:47:00.310Z,71.7
2022-10-17T09:48:01.739Z,71
2022-10-17T09:49:03.502Z,71.2
2022-10-17T09:50:00.740Z,70.2
2022-10-17T09:51:14.872Z,70.4
2022-10-17T09:52:01.033Z,71.1
2022-10-17T09:53:01.172Z,70.1
2022-10-17T09:54:00.322Z,70.2
2022-10-17T09:55:00.460Z,70.9
2022-10-17T09:56:00.634Z,69.9
2022-10-17T09:57:00.783Z,71.2
2022-10-17T09:58:00.915Z,70.9
2022-10-17T09:59:01.049Z,69.3
2022-10-17T10:00:01.317Z,70.2
2022-10-17T10:01:00.406Z,70.2
2022-10-17T10:02:00.513Z,70.4
2022-10-17T10:03:00.649Z,70.2
2022-10-17T10:04:00.792Z,70.3
2022-10-17T10:05:05.453Z,70.6
2022-10-17T10:06:01.086Z,70.3
2022-10-17T10:07:01.250Z,69.4
2022-10-17T10:08:00.368Z,69.3
2022-10-17T10:09:00.524Z,68.9
2022-10-17T10:10:00.672Z,68.9
2022-10-17T10:11:00.814Z,69.2
2022-10-17T10:12:00.993Z,68.8
2022-10-17T10:13:01.123Z,69.3
2022-10-17T10:14:00.271Z,69
2022-10-17T10:15:00.412Z,68.5
2022-10-17T10:16:00.565Z,68.6
2022-10-17T10:17:00.742Z,69.2
2022-10-17T10:18:00.860Z,68.7
2022-10-17T10:19:02.756Z,68.3
2022-10-17T10:20:01.155Z,69.1
2022-10-17T10:21:00.289Z,69
2022-10-17T10:22:00.453Z,69.3
2022-10-17T10:23:00.589Z,68.8
2022-10-17T10:24:00.728Z,68.4
2022-10-17T10:25:00.880Z,68.5
2022-10-17T10:26:01.039Z,68.4
2022-10-17T10:27:01.178Z,67.9
2022-10-17T10:28:01.446Z,68.8
2022-10-17T10:29:00.728Z,68
2022-10-17T10:30:00.607Z,68.5
2022-10-17T10:31:00.753Z,68.3
2022-10-17T10:32:00.906Z,68.4
2022-10-17T10:33:01.043Z,67.6
2022-10-17T10:34:01.220Z,67.9
2022-10-17T10:35:00.339Z,68.4
2022-10-17T10:36:00.485Z,68.8
2022-10-17T10:37:00.631Z,68.9
2022-10-17T10:38:00.782Z,68.3
2022-10-17T10:39:03.828Z,68.4
2022-10-17T10:40:01.081Z,68.1
2022-10-17T10:41:01.221Z,67.7
2022-10-17T10:42:00.379Z,68.1
2022-10-17T10:43:05.170Z,68.2
2022-10-17T10:44:00.677Z,69.1
2022-10-17T10:45:00.811Z,69.2
2022-10-17T10:46:00.951Z,68.8
2022-10-17T10:47:01.103Z,69.5
2022-10-17T10:48:01.247Z,69.3
2022-10-17T10:49:00.422Z,68.4
2022-10-17T10:50:00.535Z,68.6
2022-10-17T10:51:00.673Z,68
2022-10-17T10:52:00.823Z,68.7
2022-10-17T10:53:00.992Z,68.5
2022-10-17T10:54:01.134Z,68.7
2022-10-17T10:55:00.325Z,68.7
2022-10-17T10:56:00.450Z,68.6
2022-10-17T10:57:00.595Z,68.7
2022-10-17T10:58:00.758Z,68.4
2022-10-17T10:59:00.881Z,68.9
2022-10-17T11:00:01.048Z,68.1
2022-10-17T11:01:01.275Z,67.9
2022-10-17T11:02:00.314Z,67.9
2022-10-17T11:03:01.830Z,68
2022-10-17T11:04:00.614Z,68.9
2022-10-17T11:05:00.792Z,69
2022-10-17T11:06:00.909Z,69.5
2022-10-17T11:07:01.062Z,69.1
2022-10-17T11:08:01.214Z,69.1
2022-10-17T11:09:00.349Z,68.2
2022-10-17T11:10:00.512Z,68.8
2022-10-17T11:11:00.653Z,68.9
2022-10-17T11:12:00.809Z,68.8
2022-10-17T11:13:00.944Z,68.9
2022-10-17T11:14:01.092Z,69.4
2022-10-17T11:15:01.270Z,68.2
2022-10-17T11:16:00.363Z,68.1
2022-10-17T11:17:00.518Z,68.2
2022-10-17T11:18:00.665Z,68.1
2022-10-17T11:19:00.812Z,69.2
2022-10-17T11:20:00.995Z,67.9
2022-10-17T11:21:01.114Z,68
2022-10-17T11:22:01.276Z,68.2
2022-10-17T11:23:00.457Z,68.5
2022-10-17T11:24:00.542Z,67.7
2022-10-17T11:25:00.724Z,67.6
2022-10-17T11:26:00.856Z,66.7
2022-10-17T11:27:01.001Z,67.3
2022-10-17T11:28:04.902Z,67.8
2022-10-17T11:29:00.394Z,67.3
2022-10-17T11:30:00.475Z,67.8
2022-10-17T11:31:02.375Z,68
2022-10-17T11:32:00.742Z,67.6
2022-10-17T11:33:00.871Z,67.8
2022-10-17T11:34:01.024Z,68
2022-10-17T11:35:01.168Z,68.3
2022-10-17T11:36:00.302Z,67.8
2022-10-17T11:37:00.511Z,68.2
2022-10-17T11:38:00.605Z,68.5
2022-10-17T11:39:00.756Z,68.7
2022-10-17T11:40:00.922Z,68.3
2022-10-17T11:41:01.045Z,68.1
2022-10-17T11:42:03.370Z,67.5
2022-10-17T11:43:00.343Z,68.4
2022-10-17T11:44:00.500Z,67.5
2022-10-17T11:45:00.633Z,68
2022-10-17T11:46:00.788Z,68.2
2022-10-17T11:47:00.951Z,68.5
2022-10-17T11:48:01.083Z,68.1
2022-10-17T11:49:01.235Z,68.2
2022-10-17T11:51:59.716Z,68.3
2022-10-17T11:52:02.372Z,67.5
2022-10-17T11:53:01.014Z,67
2022-10-17T11:54:00.973Z,67.5
2022-10-17T11:55:01.242Z,66.8
2022-10-17T11:56:00.275Z,66.3
2022-10-17T11:57:00.408Z,66.8
2022-10-17T11:58:00.595Z,65.9
2022-10-17T11:59:00.716Z,66.7
2022-10-17T12:00:00.859Z,65.3
2022-10-17T12:01:00.996Z,65.7
2022-10-17T12:02:01.155Z,66.5
2022-10-17T12:03:00.316Z,66.8
2022-10-17T12:04:00.548Z,66.3
2022-10-17T12:05:00.591Z,66.6
2022-10-17T12:06:00.743Z,66.4
2022-10-17T12:07:00.893Z,66.2
2022-10-17T12:08:01.089Z,66.3
2022-10-17T12:09:01.191Z,66.3
2022-10-17T12:10:00.336Z,66.4
2022-10-17T12:11:01.086Z,66.2
2022-10-17T12:12:00.645Z,65.8
2022-10-17T12:13:00.767Z,66.1
2022-10-17T12:14:04.963Z,65.5
2022-10-17T12:15:01.050Z,66.4
2022-10-17T12:16:01.235Z,66.2
2022-10-17T12:17:00.388Z,65.4
2022-10-17T12:18:00.505Z,66.1
2022-10-17T12:19:00.646Z,66.6
2022-10-17T12:20:00.801Z,66
2022-10-17T12:21:00.937Z,65.7
2022-10-17T12:22:01.126Z,66.2
2022-10-17T12:23:01.237Z,66.9
2022-10-17T12:24:00.390Z,66.4
2022-10-17T12:25:00.542Z,63.7
2022-10-17T12:26:03.267Z,65.4
2022-10-17T12:27:00.873Z,65.6
2022-10-17T12:28:01.016Z,65.7
2022-10-17T12:29:01.240Z,65.1
2022-10-17T12:30:00.307Z,64.9
2022-10-17T12:31:00.457Z,64.8
2022-10-17T12:32:00.605Z,64.9
2022-10-17T12:33:06.238Z,65.3
2022-10-17T12:34:00.938Z,64.1
2022-10-17T12:35:01.429Z,65.1
2022-10-17T12:36:01.191Z,65
2022-10-17T12:37:00.340Z,65.4
2022-10-17T12:38:00.490Z,65.3
2022-10-17T12:39:00.654Z,66.2
2022-10-17T12:40:00.803Z,65.2
2022-10-17T12:41:00.940Z,65.5
2022-10-17T12:42:01.084Z,65.4
2022-10-17T12:43:01.239Z,65.7
2022-10-17T12:44:00.390Z,66.3
2022-10-17T12:45:00.554Z,66.1
2022-10-17T12:46:00.687Z,67
2022-10-17T12:47:00.823Z,65.9
2022-10-17T12:48:00.978Z,66.3
2022-10-17T12:49:01.125Z,65.6
2022-10-17T12:50:00.292Z,66.1
2022-10-17T12:51:17.561Z,66.3
2022-10-17T12:52:00.575Z,66.3
2022-10-17T12:53:00.740Z,66.3
2022-10-17T12:54:00.869Z,66.4
2022-10-17T12:55:11.616Z,66.7
2022-10-17T12:56:01.188Z,66.6
2022-10-17T12:57:00.309Z,67.3
2022-10-17T12:58:00.458Z,67.2
2022-10-17T12:59:00.598Z,66.3
2022-10-17T13:00:00.751Z,66.5
2022-10-17T13:01:23.231Z,65.5
2022-10-17T13:02:01.067Z,66.2
2022-10-17T13:03:01.191Z,65.3
2022-10-17T13:04:00.332Z,65.7
2022-10-17T13:05:00.495Z,65.7
2022-10-17T13:06:00.638Z,66
2022-10-17T13:07:00.785Z,66.6
2022-10-17T13:08:00.930Z,67.1
2022-10-17T13:09:03.560Z,66.8
2022-10-17T13:10:01.247Z,67.4
2022-10-17T13:11:00.399Z,67.4
2022-10-17T13:12:00.536Z,67.5
2022-10-17T13:13:00.682Z,67.3
2022-10-17T13:14:00.914Z,65.9
2022-10-17T13:15:00.987Z,66.4
2022-10-17T13:16:01.124Z,66.2
2022-10-17T13:17:00.268Z,65.9
2022-10-17T13:18:00.408Z,66.5
2022-10-17T13:19:00.552Z,66.7
2022-10-17T13:20:00.736Z,67
2022-10-17T13:21:00.951Z,66
2022-10-17T13:22:05.977Z,66
2022-10-17T13:23:01.159Z,66.3
2022-10-17T13:24:00.303Z,66.8
2022-10-17T13:25:00.466Z,67.3
2022-10-17T13:26:00.635Z,66.3
2022-10-17T13:27:00.755Z,67.4